createdAt,value
2023-03-30T00:00:55.786Z,6.90
2023-03-30T00:01:55.771Z,11.20
2023-03-30T00:02:55.869Z,11.00
2023-03-30T00:03:55.901Z,9.60
2023-03-30T00:04:55.864Z,10.20
2023-03-30T00:05:55.730Z,10.70
2023-03-30T00:06:55.736Z,11.40
2023-03-30T00:07:55.712Z,11.40
2023-03-30T00:08:56.826Z,8.70
2023-03-30T00:09:56.827Z,8.70
2023-03-30T00:10:56.802Z,9.30
2023-03-30T00:11:56.789Z,10.40
2023-03-30T00:12:56.800Z,7.30
2023-03-30T00:13:56.772Z,10.90
2023-03-30T00:14:56.778Z,9.20
2023-03-30T00:15:56.740Z,8.20
2023-03-30T00:16:56.762Z,7.60
2023-03-30T00:17:56.753Z,8.10
2023-03-30T00:18:56.719Z,9.50
2023-03-30T00:19:56.844Z,8.10
2023-03-30T00:20:56.693Z,9.80
2023-03-30T00:21:57.696Z,8.50
2023-03-30T00:22:56.678Z,9.60
2023-03-30T00:23:56.669Z,7.80
2023-03-30T00:24:56.693Z,8.20
2023-03-30T00:25:56.663Z,10.20
2023-03-30T00:26:56.651Z,7.10
2023-03-30T00:27:56.628Z,11.30
2023-03-30T00:28:56.625Z,8.70
2023-03-30T00:29:56.657Z,8.80
2023-03-30T00:30:56.595Z,10.30
2023-03-30T00:31:56.643Z,8.00
2023-03-30T00:32:56.612Z,9.50
2023-03-30T00:33:56.563Z,8.90
2023-03-30T00:34:56.579Z,9.30
2023-03-30T00:35:56.573Z,7.30
2023-03-30T00:36:56.550Z,8.00
2023-03-30T00:37:56.533Z,8.70
2023-03-30T00:38:56.529Z,8.20
2023-03-30T00:39:56.548Z,10.20
2023-03-30T00:40:56.520Z,12.80
2023-03-30T00:41:57.494Z,9.50
2023-03-30T00:42:56.484Z,11.40
2023-03-30T00:43:56.475Z,8.20
2023-03-30T00:44:56.457Z,9.30
2023-03-30T00:45:56.483Z,14.50
2023-03-30T00:46:56.439Z,8.30
2023-03-30T00:47:56.494Z,9.50
2023-03-30T00:48:56.423Z,7.90
2023-03-30T00:49:56.419Z,10.20
2023-03-30T00:50:56.432Z,8.60
2023-03-30T00:51:56.387Z,8.00
2023-03-30T00:52:56.384Z,11.10
2023-03-30T00:53:56.361Z,8.90
2023-03-30T00:54:56.379Z,9.20
2023-03-30T00:55:56.361Z,8.00
2023-03-30T00:56:56.369Z,7.00
2023-03-30T00:57:56.328Z,10.30
2023-03-30T00:58:56.312Z,10.80
2023-03-30T00:59:56.305Z,8.90
2023-03-30T01:00:56.315Z,8.80
2023-03-30T01:01:56.326Z,9.60
2023-03-30T01:02:56.605Z,8.90
2023-03-30T01:03:56.306Z,11.50
2023-03-30T01:04:56.249Z,8.80
2023-03-30T01:05:56.261Z,9.50
2023-03-30T01:06:56.231Z,8.20
2023-03-30T01:07:56.218Z,9.10
2023-03-30T01:08:56.221Z,7.50
2023-03-30T01:09:56.214Z,9.50
2023-03-30T01:10:56.231Z,9.10
2023-03-30T01:11:56.200Z,8.10
2023-03-30T01:12:56.173Z,9.20
2023-03-30T01:13:56.160Z,7.10
2023-03-30T01:14:56.155Z,8.60
2023-03-30T01:15:56.179Z,8.90
2023-03-30T01:16:56.135Z,10.20
2023-03-30T01:17:56.163Z,8.50
2023-03-30T01:18:56.114Z,9.40
2023-03-30T01:19:56.100Z,7.80
2023-03-30T01:20:56.098Z,11.20
2023-03-30T01:21:56.077Z,8.00
2023-03-30T01:22:56.068Z,9.40
2023-03-30T01:23:56.057Z,11.20
2023-03-30T01:24:56.065Z,7.60
2023-03-30T01:25:56.051Z,8.20
2023-03-30T01:26:56.023Z,7.40
2023-03-30T01:27:56.017Z,8.70
2023-03-30T01:28:56.005Z,9.10
2023-03-30T01:29:56.007Z,7.70
2023-03-30T01:30:56.040Z,7.90
2023-03-30T01:31:55.975Z,9.40
2023-03-30T01:32:55.994Z,8.80
2023-03-30T01:33:55.953Z,8.10
2023-03-30T01:34:55.991Z,7.60
2023-03-30T01:35:56.034Z,11.90
2023-03-30T01:36:55.932Z,7.80
2023-03-30T01:37:55.929Z,10.20
2023-03-30T01:38:55.904Z,9.30
2023-03-30T01:39:55.904Z,9.20
2023-03-30T01:40:55.903Z,9.10
2023-03-30T01:41:55.888Z,8.60
2023-03-30T01:42:55.864Z,12.60
2023-03-30T01:43:55.856Z,9.80
2023-03-30T01:44:55.857Z,9.40
2023-03-30T01:45:55.861Z,12.30
2023-03-30T01:46:55.902Z,10.30
2023-03-30T01:47:55.887Z,12.60
2023-03-30T01:48:55.820Z,9.80
2023-03-30T01:49:55.807Z,7.20
2023-03-30T01:50:55.834Z,11.30
2023-03-30T01:51:55.777Z,7.90
2023-03-30T01:52:55.788Z,10.30
2023-03-30T01:53:55.760Z,9.40
2023-03-30T01:54:55.747Z,9.30
2023-03-30T01:55:55.787Z,8.00
2023-03-30T01:56:55.751Z,8.90
2023-03-30T01:57:55.712Z,9.40
2023-03-30T01:58:56.714Z,9.90
2023-03-30T01:59:55.697Z,10.80
2023-03-30T02:00:55.704Z,9.40
2023-03-30T02:01:55.720Z,10.50
2023-03-30T02:02:55.775Z,9.40
2023-03-30T02:03:55.736Z,11.20
2023-03-30T02:04:55.652Z,9.20
2023-03-30T02:05:55.677Z,8.50
2023-03-30T02:06:55.634Z,12.00
2023-03-30T02:07:55.624Z,8.50
2023-03-30T02:08:55.612Z,10.80
2023-03-30T02:09:55.599Z,9.20
2023-03-30T02:10:55.617Z,7.30
2023-03-30T02:11:55.573Z,12.60
2023-03-30T02:12:55.568Z,9.20
2023-03-30T02:13:55.549Z,7.30
2023-03-30T02:14:55.549Z,10.20
2023-03-30T02:15:55.594Z,7.30
2023-03-30T02:16:55.532Z,8.90
2023-03-30T02:17:55.542Z,10.90
2023-03-30T02:18:55.523Z,10.30
2023-03-30T02:19:55.505Z,9.30
2023-03-30T02:20:55.501Z,10.50
2023-03-30T02:21:55.472Z,11.40
2023-03-30T02:22:55.476Z,8.10
2023-03-30T02:23:55.465Z,9.80
2023-03-30T02:24:55.449Z,11.50
2023-03-30T02:25:55.464Z,10.90
2023-03-30T02:26:55.464Z,8.20
2023-03-30T02:27:55.421Z,7.80
2023-03-30T02:28:55.404Z,8.30
2023-03-30T02:29:55.399Z,9.70
2023-03-30T02:30:55.403Z,10.70
2023-03-30T02:31:55.423Z,9.00
2023-03-30T02:32:55.433Z,8.30
2023-03-30T02:33:55.365Z,9.50
2023-03-30T02:34:55.352Z,12.60
2023-03-30T02:35:55.388Z,8.70
2023-03-30T02:36:55.350Z,7.20
2023-03-30T02:37:55.328Z,10.80
2023-03-30T02:38:55.306Z,8.50
2023-03-30T02:39:55.296Z,11.90
2023-03-30T02:40:55.339Z,9.00
2023-03-30T02:41:55.279Z,11.30
2023-03-30T02:42:55.263Z,10.40
2023-03-30T02:43:55.258Z,13.20
2023-03-30T02:44:55.249Z,11.60
2023-03-30T02:45:55.276Z,9.40
2023-03-30T02:46:55.226Z,9.60
2023-03-30T02:47:55.261Z,11.20
2023-03-30T02:48:55.205Z,8.60
2023-03-30T02:49:55.205Z,9.60
2023-03-30T02:50:55.185Z,8.30
2023-03-30T02:51:55.167Z,9.80
2023-03-30T02:52:55.174Z,11.00
2023-03-30T02:53:55.151Z,11.40
2023-03-30T02:54:55.142Z,7.90
2023-03-30T02:55:55.137Z,9.70
2023-03-30T02:56:55.130Z,10.80
2023-03-30T02:57:55.114Z,10.90
2023-03-30T02:58:55.116Z,8.60
2023-03-30T02:59:55.094Z,9.70
2023-03-30T03:00:55.800Z,10.10
2023-03-30T03:01:55.089Z,11.50
2023-03-30T03:02:55.213Z,10.00
2023-03-30T03:03:55.052Z,7.50
2023-03-30T03:04:55.030Z,9.90
2023-03-30T03:05:55.037Z,7.40
2023-03-30T03:06:55.013Z,8.10
2023-03-30T03:07:55.004Z,9.70
2023-03-30T03:08:55.008Z,12.80
2023-03-30T03:09:54.988Z,9.60
2023-03-30T03:10:54.995Z,10.80
2023-03-30T03:11:54.954Z,14.20
2023-03-30T03:12:54.960Z,11.40
2023-03-30T03:13:54.946Z,10.80
2023-03-30T03:14:54.935Z,8.90
2023-03-30T03:15:55.009Z,10.90
2023-03-30T03:16:54.938Z,10.40
2023-03-30T03:17:54.958Z,11.30
2023-03-30T03:18:54.900Z,10.20
2023-03-30T03:19:54.886Z,9.90
2023-03-30T03:20:54.898Z,9.40
2023-03-30T03:21:54.860Z,10.60
2023-03-30T03:22:55.855Z,9.50
2023-03-30T03:23:54.858Z,10.70
2023-03-30T03:24:54.834Z,6.00
2023-03-30T03:25:54.848Z,11.00
2023-03-30T03:26:54.807Z,11.70
2023-03-30T03:27:54.798Z,9.40
2023-03-30T03:28:54.800Z,10.10
2023-03-30T03:29:54.788Z,9.40
2023-03-30T03:30:54.784Z,10.00
2023-03-30T03:31:54.793Z,14.30
2023-03-30T03:32:54.823Z,9.10
2023-03-30T03:33:54.745Z,10.70
2023-03-30T03:34:54.722Z,11.40
2023-03-30T03:35:54.750Z,10.40
2023-03-30T03:36:54.736Z,8.10
2023-03-30T03:37:54.709Z,6.90
2023-03-30T03:38:54.711Z,10.60
2023-03-30T03:39:54.706Z,12.90
2023-03-30T03:40:54.724Z,10.20
2023-03-30T03:41:54.715Z,12.00
2023-03-30T03:42:54.643Z,11.60
2023-03-30T03:43:55.645Z,8.70
2023-03-30T03:44:54.735Z,8.70
2023-03-30T03:45:54.619Z,12.10
2023-03-30T03:46:54.648Z,10.00
2023-03-30T03:47:54.708Z,8.60
2023-03-30T03:48:54.596Z,10.80
2023-03-30T03:49:54.581Z,10.40
2023-03-30T03:50:54.567Z,7.90
2023-03-30T03:51:54.588Z,13.20
2023-03-30T03:52:54.549Z,12.70
2023-03-30T03:53:54.546Z,9.40
2023-03-30T03:54:54.526Z,12.40
2023-03-30T03:55:54.516Z,9.30
2023-03-30T03:56:54.594Z,10.50
2023-03-30T03:57:54.508Z,12.70
2023-03-30T03:58:54.504Z,11.20
2023-03-30T03:59:54.485Z,12.00
2023-03-30T04:00:54.521Z,10.50
2023-03-30T04:01:54.565Z,12.10
2023-03-30T04:02:54.501Z,12.30
2023-03-30T04:03:54.451Z,7.80
2023-03-30T04:04:54.459Z,14.80
2023-03-30T04:05:54.425Z,16.10
2023-03-30T04:07:28.192Z,11.60
2023-03-30T04:07:54.411Z,11.70
2023-03-30T04:08:54.408Z,11.40
2023-03-30T04:09:54.393Z,13.90
2023-03-30T04:10:54.385Z,10.70
2023-03-30T04:11:54.394Z,13.10
2023-03-30T04:12:54.373Z,11.60
2023-03-30T04:13:54.353Z,8.90
2023-03-30T04:14:54.338Z,13.50
2023-03-30T04:15:54.381Z,12.20
2023-03-30T04:16:54.363Z,12.00
2023-03-30T04:17:54.352Z,15.20
2023-03-30T04:18:54.294Z,11.50
2023-03-30T04:19:54.322Z,11.50
2023-03-30T04:20:54.277Z,14.70
2023-03-30T04:21:54.347Z,14.60
2023-03-30T04:22:55.258Z,15.00
2023-03-30T04:23:54.241Z,12.80
2023-03-30T04:24:54.242Z,12.90
2023-03-30T04:25:54.248Z,17.10
2023-03-30T04:26:54.233Z,14.10
2023-03-30T04:27:54.213Z,13.40
2023-03-30T04:28:54.195Z,12.10
2023-03-30T04:29:54.212Z,14.50
2023-03-30T04:30:54.197Z,14.30
2023-03-30T04:31:54.213Z,12.00
2023-03-30T04:32:54.234Z,13.80
2023-03-30T04:33:54.157Z,13.60
2023-03-30T04:34:54.152Z,11.10
2023-03-30T04:35:54.193Z,15.70
2023-03-30T04:36:54.203Z,12.20
2023-03-30T04:37:54.107Z,14.70
2023-03-30T04:38:54.101Z,13.90
2023-03-30T04:39:54.108Z,13.30
2023-03-30T04:40:54.082Z,11.70
2023-03-30T04:41:54.099Z,14.70
2023-03-30T04:42:55.067Z,16.10
2023-03-30T04:43:54.069Z,16.90
2023-03-30T04:44:54.032Z,17.00
2023-03-30T04:45:54.076Z,16.50
2023-03-30T04:46:54.011Z,11.80
2023-03-30T04:47:54.044Z,16.80
2023-03-30T04:48:54.005Z,16.50
2023-03-30T04:49:53.987Z,13.60
2023-03-30T04:50:54.005Z,14.20
2023-03-30T04:51:53.980Z,17.10
2023-03-30T04:52:53.952Z,13.90
2023-03-30T04:53:53.947Z,15.60
2023-03-30T04:54:53.940Z,21.20
2023-03-30T04:55:53.921Z,14.30
2023-03-30T04:56:53.986Z,15.30
2023-03-30T04:57:53.901Z,13.40
2023-03-30T04:58:53.892Z,12.70
2023-03-30T04:59:54.666Z,14.60
2023-03-30T05:00:54.913Z,16.00
2023-03-30T05:01:53.877Z,17.30
2023-03-30T05:02:53.888Z,14.60
2023-03-30T05:03:53.889Z,16.00
2023-03-30T05:04:53.835Z,11.80
2023-03-30T05:05:53.827Z,11.30
2023-03-30T05:06:53.828Z,14.00
2023-03-30T05:07:53.806Z,16.80
2023-03-30T05:08:53.782Z,14.70
2023-03-30T05:09:53.775Z,14.30
2023-03-30T05:10:53.791Z,13.10
2023-03-30T05:11:53.778Z,15.40
2023-03-30T05:12:53.748Z,14.00
2023-03-30T05:13:53.740Z,13.90
2023-03-30T05:14:53.717Z,16.40
2023-03-30T05:15:53.725Z,12.40
2023-03-30T05:16:53.768Z,14.40
2023-03-30T05:17:53.733Z,13.00
2023-03-30T05:18:53.678Z,15.90
2023-03-30T05:19:53.686Z,14.70
2023-03-30T05:20:53.666Z,14.50
2023-03-30T05:21:53.694Z,17.60
2023-03-30T05:22:53.655Z,11.10
2023-03-30T05:23:53.635Z,12.60
2023-03-30T05:24:53.621Z,18.10
2023-03-30T05:25:53.641Z,15.10
2023-03-30T05:26:53.630Z,12.10
2023-03-30T05:27:53.595Z,17.60
2023-03-30T05:28:53.585Z,14.90
2023-03-30T05:29:53.572Z,13.70
2023-03-30T05:30:53.608Z,15.50
2023-03-30T05:31:53.653Z,12.90
2023-03-30T05:32:53.636Z,17.10
2023-03-30T05:33:53.530Z,14.50
2023-03-30T05:34:53.533Z,15.50
2023-03-30T05:35:53.534Z,12.00
2023-03-30T05:36:53.524Z,13.90
2023-03-30T05:37:53.490Z,14.40
2023-03-30T05:38:53.483Z,17.60
2023-03-30T05:39:53.475Z,12.60
2023-03-30T05:40:53.477Z,15.90
2023-03-30T05:41:53.473Z,18.60
2023-03-30T05:42:54.458Z,13.00
2023-03-30T05:43:53.480Z,12.10
2023-03-30T05:44:53.428Z,14.90
2023-03-30T05:45:53.430Z,13.20
2023-03-30T05:46:53.612Z,14.50
2023-03-30T05:47:53.418Z,11.40
2023-03-30T05:48:53.376Z,13.20
2023-03-30T05:49:53.400Z,12.70
2023-03-30T05:50:53.356Z,13.40
2023-03-30T05:51:53.392Z,16.80
2023-03-30T05:52:53.331Z,12.80
2023-03-30T05:53:53.326Z,14.80
2023-03-30T05:54:53.320Z,13.10
2023-03-30T05:55:53.309Z,15.00
2023-03-30T05:56:53.351Z,14.60
2023-03-30T05:57:53.289Z,14.20
2023-03-30T05:58:53.268Z,12.00
2023-03-30T05:59:53.269Z,15.10
2023-03-30T06:00:53.271Z,14.10
2023-03-30T06:01:53.256Z,13.00
2023-03-30T06:02:53.398Z,13.70
2023-03-30T06:03:53.554Z,10.60
2023-03-30T06:04:53.274Z,15.10
2023-03-30T06:05:53.209Z,13.60
2023-03-30T06:06:53.204Z,11.60
2023-03-30T06:07:53.171Z,17.10
2023-03-30T06:08:53.171Z,13.50
2023-03-30T06:09:53.156Z,11.90
2023-03-30T06:10:53.147Z,15.50
2023-03-30T06:11:53.160Z,10.40
2023-03-30T06:12:53.133Z,13.20
2023-03-30T06:13:53.114Z,13.00
2023-03-30T06:14:53.108Z,12.10
2023-03-30T06:15:53.107Z,10.70
2023-03-30T06:16:53.295Z,11.60
2023-03-30T06:17:53.147Z,13.80
2023-03-30T06:18:53.072Z,13.80
2023-03-30T06:19:53.057Z,11.80
2023-03-30T06:20:53.044Z,12.40
2023-03-30T06:21:53.036Z,13.40
2023-03-30T06:22:53.072Z,12.90
2023-03-30T06:23:53.024Z,10.70
2023-03-30T06:24:53.033Z,12.10
2023-03-30T06:25:53.321Z,11.50
2023-03-30T06:26:52.997Z,10.60
2023-03-30T06:27:52.999Z,12.60
2023-03-30T06:28:52.978Z,13.80
2023-03-30T06:29:53.014Z,10.90
2023-03-30T06:30:52.943Z,11.80
2023-03-30T06:31:52.989Z,16.00
2023-03-30T06:32:52.987Z,16.40
2023-03-30T06:33:52.910Z,14.80
2023-03-30T06:34:52.916Z,18.60
2023-03-30T06:35:52.972Z,12.50
2023-03-30T06:36:52.903Z,11.30
2023-03-30T06:37:52.909Z,11.70
2023-03-30T06:38:52.864Z,14.30
2023-03-30T06:39:52.859Z,11.60
2023-03-30T06:40:52.837Z,13.40
2023-03-30T06:41:53.844Z,13.60
2023-03-30T06:42:52.844Z,13.20
2023-03-30T06:43:52.822Z,12.60
2023-03-30T06:44:52.812Z,11.60
2023-03-30T06:45:52.852Z,12.90
2023-03-30T06:46:52.778Z,11.80
2023-03-30T06:47:52.860Z,12.50
2023-03-30T06:48:52.802Z,13.20
2023-03-30T06:49:52.752Z,11.50
2023-03-30T06:50:52.749Z,13.20
2023-03-30T06:51:52.733Z,13.10
2023-03-30T06:52:52.760Z,12.40
2023-03-30T06:53:52.716Z,11.60
2023-03-30T06:54:52.700Z,13.00
2023-03-30T06:55:52.704Z,13.20
2023-03-30T06:56:52.889Z,13.40
2023-03-30T06:57:52.696Z,16.30
2023-03-30T06:58:52.679Z,15.50
2023-03-30T06:59:52.678Z,10.90
2023-03-30T07:00:53.675Z,12.60
2023-03-30T07:01:52.692Z,13.30
2023-03-30T07:02:52.706Z,17.40
2023-03-30T07:03:52.650Z,12.50
2023-03-30T07:04:52.633Z,16.30
2023-03-30T07:05:52.657Z,11.60
2023-03-30T07:06:52.593Z,8.70
2023-03-30T07:07:52.603Z,13.20
2023-03-30T07:08:52.572Z,14.60
2023-03-30T07:09:52.562Z,14.60
2023-03-30T07:10:52.556Z,11.80
2023-03-30T07:11:53.869Z,11.90
2023-03-30T07:12:52.546Z,12.90
2023-03-30T07:13:52.577Z,13.60
2023-03-30T07:14:52.571Z,13.90
2023-03-30T07:15:52.526Z,12.10
2023-03-30T07:16:52.575Z,12.70
2023-03-30T07:17:52.534Z,16.30
2023-03-30T07:18:52.473Z,18.20
2023-03-30T07:19:52.463Z,12.50
2023-03-30T07:20:52.456Z,13.20
2023-03-30T07:21:52.471Z,15.80
2023-03-30T07:22:52.460Z,11.50
2023-03-30T07:23:52.564Z,12.50
2023-03-30T07:24:52.425Z,13.80
2023-03-30T07:25:52.420Z,14.40
2023-03-30T07:26:52.399Z,17.60
2023-03-30T07:27:52.400Z,12.00
2023-03-30T07:28:52.380Z,16.50
2023-03-30T07:29:52.358Z,15.60
2023-03-30T07:30:52.376Z,14.20
2023-03-30T07:31:52.361Z,13.40
2023-03-30T07:32:52.474Z,13.80
2023-03-30T07:33:52.326Z,13.50
2023-03-30T07:34:52.316Z,15.80
2023-03-30T07:35:52.360Z,15.60
2023-03-30T07:36:52.554Z,10.70
2023-03-30T07:37:52.321Z,14.50
2023-03-30T07:38:52.268Z,15.20
2023-03-30T07:39:52.306Z,16.10
2023-03-30T07:40:52.273Z,16.00
2023-03-30T07:41:52.227Z,20.20
2023-03-30T07:42:53.260Z,14.30
2023-03-30T07:43:52.219Z,15.40
2023-03-30T07:44:52.297Z,14.20
2023-03-30T07:45:52.234Z,16.60
2023-03-30T07:46:52.196Z,12.50
2023-03-30T07:47:52.289Z,13.40
2023-03-30T07:48:52.168Z,11.50
2023-03-30T07:49:52.153Z,15.80
2023-03-30T07:50:52.147Z,13.10
2023-03-30T07:51:52.145Z,15.70
2023-03-30T07:52:52.158Z,14.60
2023-03-30T07:53:52.129Z,12.00
2023-03-30T07:54:52.103Z,14.80
2023-03-30T07:55:52.097Z,12.70
2023-03-30T07:56:52.131Z,13.80
2023-03-30T07:57:52.117Z,16.70
2023-03-30T07:58:52.224Z,13.80
2023-03-30T07:59:52.080Z,17.00
2023-03-30T08:00:52.069Z,16.90
2023-03-30T08:01:52.049Z,15.10
2023-03-30T08:02:52.224Z,15.10
2023-03-30T08:03:52.086Z,17.40
2023-03-30T08:04:52.067Z,14.70
2023-03-30T08:05:52.022Z,14.20
2023-03-30T08:06:51.981Z,15.30
2023-03-30T08:07:52.017Z,15.70
2023-03-30T08:08:51.972Z,18.00
2023-03-30T08:09:51.967Z,15.70
2023-03-30T08:10:51.947Z,15.30
2023-03-30T08:11:51.958Z,16.80
2023-03-30T08:12:51.955Z,18.10
2023-03-30T08:13:51.917Z,15.60
2023-03-30T08:14:51.905Z,15.90
2023-03-30T08:15:51.931Z,20.50
2023-03-30T08:16:52.747Z,17.20
2023-03-30T08:17:51.923Z,18.80
2023-03-30T08:18:51.867Z,19.30
2023-03-30T08:19:51.859Z,23.50
2023-03-30T08:20:51.866Z,14.70
2023-03-30T08:21:51.830Z,22.80
2023-03-30T08:22:51.855Z,21.50
2023-03-30T08:23:51.834Z,14.70
2023-03-30T08:24:51.819Z,16.00
2023-03-30T08:25:51.809Z,19.10
2023-03-30T08:26:51.804Z,16.80
2023-03-30T08:27:51.807Z,14.80
2023-03-30T08:28:51.770Z,18.40
2023-03-30T08:29:51.753Z,17.60
2023-03-30T08:30:51.742Z,15.70
2023-03-30T08:31:51.754Z,20.80
2023-03-30T08:32:51.806Z,18.30
2023-03-30T08:33:51.719Z,18.00
2023-03-30T08:34:51.707Z,13.90
2023-03-30T08:35:51.718Z,16.30
2023-03-30T08:36:51.690Z,18.40
2023-03-30T08:37:51.686Z,15.80
2023-03-30T08:38:51.659Z,17.70
2023-03-30T08:39:51.665Z,21.10
2023-03-30T08:40:51.657Z,18.60
2023-03-30T08:41:51.637Z,18.50
2023-03-30T08:42:51.699Z,16.60
2023-03-30T08:43:51.631Z,17.80
2023-03-30T08:44:51.608Z,17.50
2023-03-30T08:45:51.611Z,18.30
2023-03-30T08:46:51.595Z,13.50
2023-03-30T08:47:51.657Z,16.40
2023-03-30T08:48:51.560Z,20.30
2023-03-30T08:49:51.574Z,20.00
2023-03-30T08:50:51.546Z,19.20
2023-03-30T08:51:51.548Z,18.80
2023-03-30T08:52:51.565Z,17.10
2023-03-30T08:53:51.524Z,19.00
2023-03-30T08:54:51.509Z,17.60
2023-03-30T08:55:51.502Z,16.50
2023-03-30T08:56:51.529Z,17.10
2023-03-30T08:57:51.501Z,17.90
2023-03-30T08:58:51.472Z,18.30
2023-03-30T08:59:51.458Z,14.60
2023-03-30T09:00:51.522Z,20.30
2023-03-30T09:01:51.594Z,19.80
2023-03-30T09:02:51.514Z,19.10
2023-03-30T09:03:51.421Z,13.20
2023-03-30T09:04:51.425Z,18.10
2023-03-30T09:05:51.397Z,16.90
2023-03-30T09:06:51.387Z,13.70
2023-03-30T09:07:51.403Z,15.00
2023-03-30T09:08:51.375Z,13.70
2023-03-30T09:09:51.373Z,18.00
2023-03-30T09:10:51.347Z,13.80
2023-03-30T09:11:51.336Z,15.00
2023-03-30T09:12:51.357Z,14.60
2023-03-30T09:13:52.317Z,20.20
2023-03-30T09:14:51.303Z,14.30
2023-03-30T09:15:51.293Z,15.70
2023-03-30T09:16:51.321Z,14.20
2023-03-30T09:17:51.389Z,17.90
2023-03-30T09:18:51.278Z,17.20
2023-03-30T09:19:51.253Z,13.60
2023-03-30T09:20:51.252Z,15.30
2023-03-30T09:21:51.230Z,16.30
2023-03-30T09:22:51.223Z,15.70
2023-03-30T09:23:51.250Z,15.60
2023-03-30T09:24:51.213Z,14.00
2023-03-30T09:25:51.200Z,12.80
2023-03-30T09:26:51.181Z,14.30
2023-03-30T09:27:51.167Z,16.60
2023-03-30T09:28:51.180Z,20.90
2023-03-30T09:29:51.158Z,16.10
2023-03-30T09:30:51.141Z,13.90
2023-03-30T09:31:51.154Z,15.30
2023-03-30T09:32:51.143Z,14.00
2023-03-30T09:33:51.140Z,9.70
2023-03-30T09:34:51.100Z,13.70
2023-03-30T09:35:51.105Z,16.80
2023-03-30T09:36:51.067Z,12.90
2023-03-30T09:37:52.066Z,15.80
2023-03-30T09:38:51.073Z,13.00
2023-03-30T09:39:51.081Z,16.60
2023-03-30T09:40:51.038Z,15.50
2023-03-30T09:41:51.025Z,14.70
2023-03-30T09:42:51.013Z,12.50
2023-03-30T09:43:51.076Z,14.40
2023-03-30T09:44:51.005Z,12.20
2023-03-30T09:45:50.999Z,14.70
2023-03-30T09:46:50.975Z,14.70
2023-03-30T09:47:51.015Z,13.10
2023-03-30T09:48:50.971Z,17.80
2023-03-30T09:49:50.959Z,17.60
2023-03-30T09:50:50.965Z,12.80
2023-03-30T09:51:50.922Z,12.50
2023-03-30T09:52:50.915Z,17.70
2023-03-30T09:53:50.933Z,12.20
2023-03-30T09:54:50.912Z,13.70
2023-03-30T09:55:50.885Z,12.10
2023-03-30T09:56:50.922Z,12.70
2023-03-30T09:57:50.873Z,14.80
2023-03-30T09:58:50.860Z,12.80
2023-03-30T09:59:50.876Z,15.40
2023-03-30T10:00:50.837Z,12.00
2023-03-30T10:01:50.878Z,13.60
2023-03-30T10:02:50.871Z,13.00
2023-03-30T10:03:51.021Z,10.60
2023-03-30T10:04:50.877Z,14.30
2023-03-30T10:05:51.773Z,12.20
2023-03-30T10:08:03.317Z,11.90
2023-03-30T10:09:03.312Z,10.30
2023-03-30T10:10:03.294Z,16.80
2023-03-30T10:11:03.290Z,13.60
2023-03-30T10:12:03.272Z,13.90
2023-03-30T10:13:03.271Z,12.70
2023-03-30T10:14:03.288Z,10.30
2023-03-30T10:15:03.263Z,16.80
2023-03-30T10:16:03.576Z,13.70
2023-03-30T10:17:03.220Z,14.50
2023-03-30T10:18:03.218Z,14.50
2023-03-30T10:19:03.197Z,12.00
2023-03-30T10:20:11.392Z,12.80
2023-03-30T10:21:04.179Z,14.60
2023-03-30T10:22:03.170Z,12.50
2023-03-30T10:23:03.154Z,11.10
2023-03-30T10:24:03.194Z,15.50
2023-03-30T10:25:03.138Z,11.80
2023-03-30T10:26:03.339Z,10.20
2023-03-30T10:27:03.117Z,10.30
2023-03-30T10:28:03.115Z,12.90
2023-03-30T10:29:03.117Z,15.10
2023-03-30T10:30:03.092Z,11.30
2023-03-30T10:31:03.096Z,11.40
2023-03-30T10:32:03.138Z,13.50
2023-03-30T10:33:03.116Z,13.30
2023-03-30T10:34:04.230Z,11.20
2023-03-30T10:35:04.170Z,16.00
2023-03-30T10:36:04.361Z,13.40
2023-03-30T10:37:04.142Z,15.60
2023-03-30T10:38:04.134Z,14.60
2023-03-30T10:39:04.135Z,14.40
2023-03-30T10:40:04.116Z,13.50
2023-03-30T10:41:04.102Z,12.90
2023-03-30T10:42:05.189Z,15.00
2023-03-30T10:43:04.089Z,13.50
2023-03-30T10:44:04.104Z,13.50
2023-03-30T10:45:04.069Z,12.50
2023-03-30T10:46:16.419Z,13.20
2023-03-30T10:47:06.110Z,11.40
2023-03-30T10:48:04.061Z,13.50
2023-03-30T10:49:04.095Z,14.70
2023-03-30T10:50:04.033Z,12.20
2023-03-30T10:51:04.007Z,13.70
2023-03-30T10:52:04.004Z,13.30
2023-03-30T10:53:03.993Z,14.20
2023-03-30T10:54:04.002Z,14.80
2023-03-30T10:55:03.963Z,15.80
2023-03-30T10:56:04.320Z,10.90
2023-03-30T10:57:04.006Z,13.50
2023-03-30T10:58:03.952Z,14.00
2023-03-30T10:59:03.960Z,12.60
2023-03-30T11:00:03.924Z,11.50
2023-03-30T11:01:03.929Z,11.50
2023-03-30T11:02:03.892Z,11.50
2023-03-30T11:03:03.957Z,12.20
2023-03-30T11:04:16.218Z,11.90
2023-03-30T11:05:05.865Z,11.70
2023-03-30T11:06:04.004Z,11.80
2023-03-30T11:07:03.889Z,14.80
2023-03-30T11:08:03.838Z,13.30
2023-03-30T11:09:03.857Z,9.50
2023-03-30T11:10:03.821Z,11.30
2023-03-30T11:11:03.811Z,14.30
2023-03-30T11:12:03.801Z,13.30
2023-03-30T11:13:03.795Z,13.20
2023-03-30T11:14:03.788Z,12.90
2023-03-30T11:15:03.760Z,13.70
2023-03-30T11:16:03.950Z,13.30
2023-03-30T11:17:03.831Z,14.10
2023-03-30T11:18:03.780Z,16.80
2023-03-30T11:19:03.819Z,11.60
2023-03-30T11:20:03.710Z,15.30
2023-03-30T11:21:03.717Z,12.90
2023-03-30T11:22:03.709Z,15.30
2023-03-30T11:23:03.699Z,12.40
2023-03-30T11:24:03.691Z,10.90
2023-03-30T11:25:03.654Z,9.80
2023-03-30T11:26:03.906Z,8.90
2023-03-30T11:27:03.660Z,9.20
2023-03-30T11:28:03.645Z,9.70
2023-03-30T11:29:03.639Z,11.50
2023-03-30T11:30:03.621Z,11.90
2023-03-30T11:31:03.609Z,13.70
2023-03-30T11:32:03.610Z,16.50
2023-03-30T11:33:03.650Z,18.10
2023-03-30T11:34:03.601Z,10.70
2023-03-30T11:35:03.591Z,14.20
2023-03-30T11:36:03.842Z,17.60
2023-03-30T11:37:03.575Z,13.40
2023-03-30T11:38:03.539Z,10.30
2023-03-30T11:39:03.551Z,14.80
2023-03-30T11:40:03.523Z,30.90
2023-03-30T11:41:03.508Z,41.10
2023-03-30T11:42:03.496Z,32.90
2023-03-30T11:43:03.502Z,29.00
2023-03-30T11:44:03.509Z,15.40
2023-03-30T11:45:03.524Z,10.30
2023-03-30T11:46:04.274Z,6.20
2023-03-30T11:47:04.481Z,8.50
2023-03-30T11:48:03.475Z,6.80
2023-03-30T11:49:03.456Z,7.10
2023-03-30T11:50:03.434Z,11.10
2023-03-30T11:51:03.659Z,10.70
2023-03-30T11:52:03.412Z,8.10
2023-03-30T11:53:03.401Z,9.60
2023-03-30T11:54:03.421Z,7.80
2023-03-30T11:55:04.203Z,8.10
2023-03-30T11:56:04.465Z,7.70
2023-03-30T11:57:03.376Z,7.00
2023-03-30T11:58:06.209Z,7.00
2023-03-30T11:59:04.370Z,7.40
2023-03-30T12:00:03.338Z,7.10
2023-03-30T12:01:03.494Z,7.50
2023-03-30T12:02:03.317Z,4.30
2023-03-30T12:03:03.346Z,5.70
2023-03-30T12:04:03.414Z,6.70
2023-03-30T12:05:03.331Z,4.10
2023-03-30T12:06:03.512Z,7.80
2023-03-30T12:07:03.260Z,5.30
2023-03-30T12:08:03.256Z,5.40
2023-03-30T12:09:03.240Z,4.30
2023-03-30T12:10:05.279Z,5.00
2023-03-30T12:11:04.316Z,5.20
2023-03-30T12:12:03.274Z,5.60
2023-03-30T12:13:03.186Z,7.00
2023-03-30T12:14:03.202Z,5.30
2023-03-30T12:15:03.179Z,6.80
2023-03-30T12:16:03.442Z,6.50
2023-03-30T12:17:03.162Z,5.30
2023-03-30T12:18:03.160Z,5.70
2023-03-30T12:19:03.140Z,8.30
2023-03-30T12:20:03.137Z,5.50
2023-03-30T12:21:03.110Z,9.40
2023-03-30T12:22:03.140Z,5.90
2023-03-30T12:23:03.086Z,7.00
2023-03-30T12:24:03.097Z,4.80
2023-03-30T12:25:03.075Z,6.10
2023-03-30T12:26:03.339Z,7.80
2023-03-30T12:27:06.788Z,7.80
2023-03-30T12:28:04.053Z,7.00
2023-03-30T12:29:26.260Z,7.90
2023-03-30T12:30:05.018Z,5.40
2023-03-30T12:31:03.014Z,4.30
2023-03-30T12:32:04.123Z,6.20
2023-03-30T12:33:03.016Z,6.20
2023-03-30T12:34:03.014Z,6.40
2023-03-30T12:35:02.984Z,4.50
2023-03-30T12:36:03.250Z,6.20
2023-03-30T12:37:02.965Z,6.70
2023-03-30T12:38:02.952Z,6.50
2023-03-30T12:39:02.978Z,4.60
2023-03-30T12:40:02.934Z,4.50
2023-03-30T12:41:02.925Z,8.00
2023-03-30T12:42:02.915Z,5.70
2023-03-30T12:43:02.886Z,5.30
2023-03-30T12:44:03.913Z,3.00
2023-03-30T12:45:02.865Z,4.30
2023-03-30T12:46:03.133Z,4.30
2023-03-30T12:47:04.692Z,5.40
2023-03-30T12:48:02.910Z,4.30
2023-03-30T12:49:05.532Z,5.40
2023-03-30T12:50:03.859Z,4.30
2023-03-30T12:51:02.920Z,5.60
2023-03-30T12:52:02.826Z,4.50
2023-03-30T12:53:04.121Z,2.30
2023-03-30T12:54:03.780Z,4.90
2023-03-30T12:55:03.798Z,4.80
2023-03-30T12:56:03.049Z,5.20
2023-03-30T12:57:02.817Z,5.00
2023-03-30T12:58:02.767Z,3.70
2023-03-30T12:59:02.773Z,4.80
2023-03-30T13:00:02.769Z,3.40
2023-03-30T13:01:02.743Z,4.50
2023-03-30T13:02:02.718Z,4.60